createdAt,value
2019-02-02T00:03:55.885Z,8.23
2019-02-02T00:06:26.432Z,8.93
2019-02-02T00:12:17.088Z,8.90
2019-02-02T00:14:59.156Z,9.40
2019-02-02T00:17:41.523Z,8.30
2019-02-02T00:20:12.224Z,9.50
2019-02-02T00:26:10.083Z,9.17
2019-02-02T00:28:40.468Z,9.70
2019-02-02T00:31:22.696Z,9.70
2019-02-02T00:34:05.357Z,8.87
2019-02-02T00:36:47.545Z,8.87
2019-02-02T00:39:29.707Z,9.43
2019-02-02T00:42:11.869Z,9.83
2019-02-02T00:44:53.113Z,9.93
2019-02-02T00:47:34.878Z,9.77
2019-02-02T00:50:17.214Z,10.07
2019-02-02T00:53:01.210Z,11.10
2019-02-02T00:55:44.689Z,11.60
2019-02-02T00:58:26.573Z,10.83
2019-02-02T01:01:09.209Z,11.07
2019-02-02T01:03:52.229Z,10.90
2019-02-02T01:06:34.477Z,11.13
2019-02-02T01:09:22.678Z,10.57
2019-02-02T01:12:05.231Z,11.43
2019-02-02T01:14:47.438Z,11.10
2019-02-02T01:17:28.912Z,11.63
2019-02-02T01:19:59.449Z,12.10
2019-02-02T01:23:08.786Z,12.43
2019-02-02T01:25:51.224Z,11.43
2019-02-02T01:28:33.385Z,12.73
2019-02-02T01:31:15.390Z,13.00
2019-02-02T01:33:57.740Z,12.40
2019-02-02T01:36:28.350Z,13.03
2019-02-02T01:39:17.832Z,13.90
2019-02-02T01:42:00.214Z,13.20
2019-02-02T01:44:42.433Z,13.70
2019-02-02T01:47:13.192Z,14.20
2019-02-02T01:50:02.764Z,14.03
2019-02-02T01:52:44.802Z,12.30
2019-02-02T01:55:27.122Z,14.33
2019-02-02T01:58:16.443Z,13.83
2019-02-02T02:01:00.332Z,13.93
2019-02-02T02:03:42.494Z,15.20
2019-02-02T02:06:24.862Z,15.17
2019-02-02T02:14:48.989Z,14.93
2019-02-02T02:17:19.463Z,14.87
2019-02-02T02:19:50.054Z,14.87
2019-02-02T02:22:40.942Z,13.80
2019-02-02T02:25:16.813Z,16.17
2019-02-02T02:27:58.449Z,15.03
2019-02-02T02:30:41.082Z,16.00
2019-02-02T02:33:22.949Z,15.57
2019-02-02T02:36:04.897Z,15.90
2019-02-02T02:38:46.916Z,16.47
2019-02-02T02:41:29.259Z,16.10
2019-02-02T02:44:11.898Z,16.53
2019-02-02T02:46:53.901Z,17.17
2019-02-02T02:49:24.436Z,16.77
2019-02-02T02:55:15.590Z,16.27
2019-02-02T02:57:58.464Z,17.73
2019-02-02T03:06:19.652Z,16.93
2019-02-02T03:12:02.178Z,18.23
2019-02-02T03:14:44.493Z,17.43
2019-02-02T03:17:26.834Z,18.10
2019-02-02T03:20:08.506Z,17.57
2019-02-02T03:25:49.650Z,18.30
2019-02-02T03:28:32.142Z,18.70
2019-02-02T03:31:14.546Z,18.97
2019-02-02T03:33:55.642Z,19.73
2019-02-02T03:36:37.870Z,18.23
2019-02-02T03:39:20.430Z,18.03
2019-02-02T03:42:03.474Z,17.80
2019-02-02T03:44:45.803Z,18.97
2019-02-02T03:47:27.573Z,19.20
2019-02-02T03:50:09.605Z,19.30
2019-02-02T03:52:51.835Z,19.53
2019-02-02T03:55:34.377Z,20.43
2019-02-02T03:58:16.698Z,19.53
2019-02-02T04:00:58.662Z,18.93
2019-02-02T04:03:42.026Z,18.93
2019-02-02T04:09:27.521Z,18.50
2019-02-02T04:12:09.950Z,20.20
2019-02-02T04:14:51.737Z,19.03
2019-02-02T04:17:34.173Z,18.87
2019-02-02T04:20:25.576Z,19.73
2019-02-02T04:23:08.133Z,19.03
2019-02-02T04:25:49.824Z,19.23
2019-02-02T04:28:32.107Z,19.90
2019-02-02T04:31:14.328Z,19.93
2019-02-02T04:33:56.318Z,19.00
2019-02-02T04:36:38.261Z,18.63
2019-02-02T04:39:20.713Z,18.77
2019-02-02T04:42:02.752Z,19.63
2019-02-02T04:44:44.936Z,19.17
2019-02-02T04:47:27.218Z,19.37
2019-02-02T04:50:09.318Z,19.80
2019-02-02T04:52:51.866Z,19.33
2019-02-02T04:55:34.047Z,19.83
2019-02-02T04:58:16.478Z,19.13
2019-02-02T05:00:58.393Z,18.87
2019-02-02T05:03:29.008Z,18.37
2019-02-02T05:06:18.594Z,18.83
2019-02-02T05:09:02.238Z,18.47
2019-02-02T05:11:45.203Z,18.57
2019-02-02T05:14:27.455Z,20.17
2019-02-02T05:17:09.648Z,18.80
2019-02-02T05:22:51.091Z,18.33
2019-02-02T05:25:33.775Z,18.50
2019-02-02T05:28:04.373Z,18.53
2019-02-02T05:30:46.425Z,19.20
2019-02-02T05:33:28.445Z,17.83
2019-02-02T05:36:10.735Z,18.60
2019-02-02T05:38:52.547Z,19.77
2019-02-02T05:41:34.837Z,17.67
2019-02-02T05:44:17.844Z,18.53
2019-02-02T05:46:59.658Z,18.83
2019-02-02T05:49:30.275Z,17.50
2019-02-02T05:52:19.816Z,17.23
2019-02-02T05:55:01.969Z,17.13
2019-02-02T05:57:43.746Z,18.03
2019-02-02T06:03:28.965Z,17.80
2019-02-02T06:06:11.438Z,17.40
2019-02-02T06:08:53.481Z,16.67
2019-02-02T06:11:35.598Z,16.17
2019-02-02T06:14:06.181Z,16.90
2019-02-02T06:19:56.412Z,16.63
2019-02-02T06:22:39.543Z,16.57
2019-02-02T06:25:21.362Z,17.07
2019-02-02T06:28:03.458Z,17.23
2019-02-02T06:30:35.821Z,16.03
2019-02-02T06:33:06.301Z,15.63
2019-02-02T06:35:48.689Z,16.97
2019-02-02T06:38:30.889Z,17.73
2019-02-02T06:41:14.461Z,17.80
2019-02-02T06:43:56.732Z,17.50
2019-02-02T06:46:43.582Z,17.00
2019-02-02T06:49:23.211Z,16.70
2019-02-02T06:52:05.543Z,16.83
2019-02-02T06:54:47.764Z,17.03
2019-02-02T06:57:29.924Z,17.63
2019-02-02T07:00:16.230Z,17.60
2019-02-02T07:02:55.737Z,15.93
2019-02-02T07:05:37.819Z,17.27
2019-02-02T07:08:20.367Z,16.43
2019-02-02T07:11:03.042Z,15.40
2019-02-02T07:13:45.803Z,15.73
2019-02-02T07:16:18.853Z,16.70
2019-02-02T07:19:01.169Z,15.73
2019-02-02T07:21:43.033Z,17.00
2019-02-02T07:24:25.577Z,17.33
2019-02-02T07:27:07.667Z,15.97
2019-02-02T07:29:49.740Z,15.37
2019-02-02T07:32:31.883Z,16.00
2019-02-02T07:35:15.621Z,15.60
2019-02-02T07:37:46.068Z,16.53
2019-02-02T07:40:34.470Z,15.73
2019-02-02T07:43:16.393Z,15.90
2019-02-02T07:45:58.325Z,15.67
2019-02-02T07:48:40.487Z,15.70
2019-02-02T07:51:22.845Z,17.17
2019-02-02T07:54:06.050Z,16.97
2019-02-02T07:56:48.261Z,15.90
2019-02-02T07:59:30.796Z,15.67
2019-02-02T08:02:13.059Z,15.30
2019-02-02T08:04:57.563Z,16.07
2019-02-02T08:07:40.257Z,15.30
2019-02-02T08:10:22.650Z,15.57
2019-02-02T08:13:04.826Z,16.33
2019-02-02T08:15:46.806Z,16.23
2019-02-02T08:18:28.466Z,16.00
2019-02-02T08:21:10.246Z,16.47
2019-02-02T08:23:52.293Z,15.70
2019-02-02T08:26:34.240Z,15.83
2019-02-02T08:29:19.309Z,16.43
2019-02-02T08:32:00.990Z,15.90
2019-02-02T08:34:43.093Z,16.23
2019-02-02T08:37:25.360Z,14.87
2019-02-02T08:40:07.828Z,16.00
2019-02-02T08:42:50.070Z,15.30
2019-02-02T08:45:32.141Z,15.53
2019-02-02T08:48:14.746Z,15.10
2019-02-02T08:50:56.995Z,15.83
2019-02-02T08:53:39.257Z,16.67
2019-02-02T08:56:21.590Z,16.93
2019-02-02T08:59:03.891Z,15.97
2019-02-02T09:01:48.186Z,16.57
2019-02-02T09:04:30.822Z,15.00
2019-02-02T09:07:12.971Z,16.00
2019-02-02T09:09:54.824Z,15.83
2019-02-02T09:12:37.015Z,15.47
2019-02-02T09:15:20.919Z,15.47
2019-02-02T09:18:03.269Z,15.50
2019-02-02T09:20:45.215Z,16.43
2019-02-02T09:23:27.724Z,14.97
2019-02-02T09:26:09.904Z,15.60
2019-02-02T09:28:51.900Z,14.87
2019-02-02T09:31:33.942Z,15.07
2019-02-02T09:34:17.678Z,15.63
2019-02-02T09:36:59.823Z,14.47
2019-02-02T09:39:41.652Z,15.97
2019-02-02T09:42:23.834Z,15.37
2019-02-02T09:45:06.592Z,15.30
2019-02-02T09:47:48.512Z,15.23
2019-02-02T09:50:30.927Z,15.23
2019-02-02T09:56:31.597Z,15.13
2019-02-02T09:59:09.765Z,15.33
2019-02-02T10:01:51.289Z,15.37
2019-02-02T10:04:33.603Z,16.40
2019-02-02T10:07:15.788Z,16.50
2019-02-02T10:09:57.801Z,16.40
2019-02-02T10:12:39.949Z,16.07
2019-02-02T10:15:22.376Z,15.80
2019-02-02T10:18:04.168Z,16.33
2019-02-02T10:20:46.191Z,15.90
2019-02-02T10:23:28.435Z,16.63
2019-02-02T10:26:12.477Z,15.50
2019-02-02T10:28:54.844Z,16.00
2019-02-02T10:31:39.660Z,17.20
2019-02-02T10:34:21.552Z,16.47
2019-02-02T10:37:05.953Z,17.20
2019-02-02T10:39:48.360Z,17.50
2019-02-02T10:45:13.044Z,18.47
2019-02-02T10:47:54.752Z,18.17
2019-02-02T10:50:36.918Z,17.10
2019-02-02T10:53:19.942Z,16.43
2019-02-02T10:56:02.861Z,16.27
2019-02-02T10:58:44.972Z,15.40
2019-02-02T11:01:26.672Z,16.23
2019-02-02T11:04:10.113Z,15.33
2019-02-02T11:06:52.215Z,17.03
2019-02-02T11:09:34.912Z,15.57
2019-02-02T11:12:17.188Z,16.30
2019-02-02T11:14:59.572Z,16.43
2019-02-02T11:17:41.304Z,16.10
2019-02-02T11:20:23.659Z,16.00
2019-02-02T11:22:54.556Z,16.20
2019-02-02T11:25:36.831Z,14.70
2019-02-02T11:28:19.042Z,16.43
2019-02-02T11:31:00.876Z,14.83
2019-02-02T11:33:44.385Z,15.23
2019-02-02T11:36:26.536Z,15.17
2019-02-02T11:39:08.853Z,16.27
2019-02-02T11:41:39.165Z,15.73
2019-02-02T11:44:30.236Z,15.50
2019-02-02T11:47:11.919Z,15.97
2019-02-02T11:49:54.265Z,14.37
2019-02-02T11:52:36.361Z,14.63
2019-02-02T11:55:18.784Z,14.77
2019-02-02T11:58:01.083Z,14.03
2019-02-02T12:00:43.491Z,14.37
2019-02-02T12:03:25.795Z,15.17
2019-02-02T12:06:08.044Z,14.07
2019-02-02T12:11:49.204Z,14.67
2019-02-02T12:14:30.904Z,14.50
2019-02-02T12:17:13.168Z,14.10
2019-02-02T12:19:55.388Z,14.77
2019-02-02T12:22:37.567Z,14.13
2019-02-02T12:25:08.231Z,14.03
2019-02-02T12:27:50.152Z,14.73
2019-02-02T12:30:32.123Z,13.60
2019-02-02T12:33:14.372Z,14.70
2019-02-02T12:35:56.651Z,13.37
2019-02-02T12:38:39.114Z,13.07
2019-02-02T12:41:21.416Z,11.77
2019-02-02T12:44:03.720Z,12.53
2019-02-02T12:46:45.852Z,13.77
2019-02-02T12:49:27.962Z,13.47
2019-02-02T12:52:10.053Z,13.30
2019-02-02T12:54:52.057Z,13.83
2019-02-02T12:57:34.333Z,13.57
2019-02-02T13:00:16.178Z,13.07
2019-02-02T13:02:58.430Z,13.00
2019-02-02T13:05:40.787Z,14.63
2019-02-02T13:08:22.369Z,13.87
2019-02-02T13:11:04.473Z,14.33
2019-02-02T13:13:46.776Z,14.63
2019-02-02T13:16:29.460Z,12.63
2019-02-02T13:19:13.847Z,13.00
2019-02-02T13:21:55.161Z,13.53
2019-02-02T13:24:25.647Z,13.83
2019-02-02T13:26:56.233Z,14.00
2019-02-02T13:29:38.088Z,13.50
2019-02-02T13:32:19.816Z,12.73
2019-02-02T13:35:01.384Z,13.47
2019-02-02T13:37:32.164Z,14.27
2019-02-02T13:40:14.688Z,13.10
2019-02-02T13:42:56.709Z,12.53
2019-02-02T13:45:38.495Z,13.20
2019-02-02T13:48:20.866Z,14.23
2019-02-02T13:51:05.832Z,13.53
2019-02-02T13:53:46.724Z,13.97
2019-02-02T13:56:17.205Z,13.87
2019-02-02T13:59:06.756Z,13.40
2019-02-02T14:01:48.566Z,12.90
2019-02-02T14:04:30.892Z,10.90
2019-02-02T14:07:18.292Z,13.40
2019-02-02T14:09:57.079Z,12.83
2019-02-02T14:12:39.394Z,12.53
2019-02-02T14:15:21.556Z,12.83
2019-02-02T14:18:04.018Z,13.30
2019-02-02T14:20:34.615Z,13.33
2019-02-02T14:23:24.209Z,11.50
2019-02-02T14:26:06.834Z,14.63
2019-02-02T14:28:37.316Z,13.17
2019-02-02T14:31:26.797Z,13.20
2019-02-02T14:34:08.701Z,13.70
2019-02-02T14:36:50.697Z,13.03
2019-02-02T14:39:33.182Z,12.63
2019-02-02T14:42:18.284Z,12.53
2019-02-02T14:44:59.648Z,13.17
2019-02-02T14:47:41.916Z,12.67
2019-02-02T14:50:23.907Z,11.97
2019-02-02T14:53:08.517Z,14.30
2019-02-02T14:55:50.893Z,13.27
2019-02-02T14:58:43.979Z,13.00
2019-02-02T15:01:25.658Z,13.53
2019-02-02T15:04:08.262Z,12.60
2019-02-02T15:06:50.368Z,12.47
2019-02-02T15:09:33.212Z,13.43
2019-02-02T15:12:14.469Z,13.57
2019-02-02T15:14:55.448Z,14.00
2019-02-02T15:17:37.361Z,13.70
2019-02-02T15:20:22.167Z,13.47
2019-02-02T15:23:03.628Z,12.37
2019-02-02T15:25:34.661Z,13.77
2019-02-02T15:28:24.044Z,12.93
2019-02-02T15:31:06.290Z,13.23
2019-02-02T15:33:47.858Z,12.73
2019-02-02T15:36:30.189Z,13.77
2019-02-02T15:39:12.488Z,12.20
2019-02-02T15:41:54.951Z,12.10
2019-02-02T15:44:37.313Z,12.47
2019-02-02T15:47:19.180Z,12.47
2019-02-02T15:50:00.916Z,12.93
2019-02-02T15:52:44.582Z,11.07
2019-02-02T15:55:26.696Z,12.40
2019-02-02T15:58:09.033Z,12.87
2019-02-02T16:00:51.749Z,12.60
2019-02-02T16:03:35.813Z,11.93
2019-02-02T16:06:17.704Z,12.13
2019-02-02T16:08:59.920Z,12.27
2019-02-02T16:11:31.759Z,12.60
2019-02-02T16:14:14.249Z,11.77
2019-02-02T16:16:56.017Z,13.53
2019-02-02T16:19:38.402Z,12.57
2019-02-02T16:22:21.754Z,13.13
2019-02-02T16:25:03.664Z,12.30
2019-02-02T16:27:45.533Z,12.10
2019-02-02T16:30:27.933Z,12.40
2019-02-02T16:33:11.164Z,12.27
2019-02-02T16:35:53.508Z,11.80
2019-02-02T16:38:34.171Z,11.53
2019-02-02T16:41:17.242Z,12.10
2019-02-02T16:44:00.513Z,12.10
2019-02-02T16:46:42.453Z,12.43
2019-02-02T16:49:24.748Z,12.70
2019-02-02T16:52:07.143Z,12.60
2019-02-02T16:54:48.965Z,12.13
2019-02-02T16:57:30.654Z,12.63
2019-02-02T17:00:12.778Z,12.20
2019-02-02T17:05:51.194Z,12.77
2019-02-02T17:08:33.210Z,13.00
2019-02-02T17:11:15.337Z,13.33
2019-02-02T17:13:59.204Z,13.33
2019-02-02T17:16:41.370Z,14.33
2019-02-02T17:19:24.404Z,13.87
2019-02-02T17:22:06.040Z,14.97
2019-02-02T17:24:48.045Z,15.40
2019-02-02T17:27:30.441Z,15.57
2019-02-02T17:30:13.490Z,13.33
2019-02-02T17:32:44.076Z,13.93
2019-02-02T17:35:26.276Z,12.47
2019-02-02T17:38:07.924Z,12.23
2019-02-02T17:40:50.048Z,13.17
2019-02-02T17:43:32.294Z,11.93
2019-02-02T17:46:14.709Z,11.93
2019-02-02T17:48:45.308Z,12.70
2019-02-02T17:51:27.969Z,12.67
2019-02-02T17:54:10.189Z,12.67
2019-02-02T17:56:52.449Z,12.57
2019-02-02T17:59:34.351Z,11.40
2019-02-02T18:02:16.641Z,12.20
2019-02-02T18:05:00.566Z,11.60
2019-02-02T18:07:43.325Z,12.77
2019-02-02T18:10:25.549Z,12.50
2019-02-02T18:13:07.646Z,12.20
2019-02-02T18:15:49.872Z,12.80
2019-02-02T18:18:31.082Z,11.97
2019-02-02T18:21:12.148Z,11.50
2019-02-02T18:23:54.477Z,12.03
2019-02-02T18:26:24.926Z,12.37
2019-02-02T18:29:14.592Z,11.40
2019-02-02T18:32:12.898Z,10.80
2019-02-02T18:34:53.109Z,10.13
2019-02-02T18:37:35.137Z,11.07
2019-02-02T18:40:16.881Z,11.47
2019-02-02T18:42:59.156Z,12.13
2019-02-02T18:45:41.272Z,11.90
2019-02-02T18:48:24.145Z,11.47
2019-02-02T18:54:04.901Z,11.87
2019-02-02T18:56:47.244Z,11.47
2019-02-02T18:59:29.660Z,11.90
2019-02-02T19:02:11.663Z,11.87
2019-02-02T19:05:03.329Z,12.07
2019-02-02T19:07:26.086Z,10.33
2019-02-02T19:10:16.828Z,10.97
2019-02-02T19:12:47.552Z,10.70
2019-02-02T19:15:29.551Z,11.07
2019-02-02T19:18:11.578Z,10.80
2019-02-02T19:20:53.704Z,10.43
2019-02-02T19:23:36.032Z,11.00
2019-02-02T19:26:18.684Z,10.70
2019-02-02T19:29:00.721Z,10.37
2019-02-02T19:31:42.457Z,10.07
2019-02-02T19:34:23.552Z,11.20
2019-02-02T19:37:05.342Z,9.73
2019-02-02T19:39:47.818Z,10.33
2019-02-02T19:42:31.432Z,9.73
2019-02-02T19:45:14.665Z,10.17
2019-02-02T19:47:56.352Z,10.10
2019-02-02T19:50:38.288Z,10.53
2019-02-02T19:53:20.793Z,10.50
2019-02-02T19:56:02.821Z,9.80
2019-02-02T19:58:46.886Z,9.83
2019-02-02T20:01:28.322Z,8.87
2019-02-02T20:04:10.497Z,8.57
2019-02-02T20:06:52.826Z,8.77
2019-02-02T20:09:35.176Z,8.97
2019-02-02T20:12:17.495Z,8.73
2019-02-02T20:14:59.357Z,8.80
2019-02-02T20:17:41.374Z,8.20
2019-02-02T20:20:23.884Z,7.43
2019-02-02T20:23:06.159Z,7.77
2019-02-02T20:25:49.485Z,7.57
2019-02-02T20:28:31.240Z,8.00
2019-02-02T20:31:13.215Z,7.43
2019-02-02T20:33:55.380Z,6.90
2019-02-02T20:36:25.961Z,7.10
2019-02-02T20:39:15.430Z,6.83
2019-02-02T20:41:59.858Z,6.57
2019-02-02T20:44:40.878Z,6.80
2019-02-02T20:47:22.937Z,7.20
2019-02-02T20:50:04.996Z,7.37
2019-02-02T20:52:47.938Z,6.97
2019-02-02T20:55:30.469Z,7.20
2019-02-02T20:58:12.833Z,7.40
2019-02-02T21:00:55.065Z,6.60
2019-02-02T21:03:37.677Z,6.50
2019-02-02T21:06:19.366Z,7.40
2019-02-02T21:09:01.762Z,7.40
2019-02-02T21:11:56.370Z,6.57
2019-02-02T21:14:29.709Z,6.10
2019-02-02T21:17:11.769Z,5.87
2019-02-02T21:19:53.954Z,6.43
2019-02-02T21:22:35.724Z,6.33
2019-02-02T21:25:18.354Z,5.93
2019-02-02T21:28:00.416Z,5.33
2019-02-02T21:30:42.659Z,6.13
2019-02-02T21:33:24.772Z,5.70
2019-02-02T21:36:07.125Z,5.73
2019-02-02T21:38:49.216Z,5.13
2019-02-02T21:41:32.645Z,5.13
2019-02-02T21:44:14.558Z,5.03
2019-02-02T21:46:56.749Z,5.63
2019-02-02T21:49:39.110Z,5.53
2019-02-02T21:52:21.070Z,4.57
2019-02-02T21:55:03.383Z,5.10
2019-02-02T21:57:45.522Z,5.20
2019-02-02T22:00:27.766Z,4.80
2019-02-02T22:03:10.184Z,5.00
2019-02-02T22:05:52.674Z,5.30
2019-02-02T22:08:35.344Z,5.40
2019-02-02T22:11:17.150Z,4.83
2019-02-02T22:13:59.269Z,5.37
2019-02-02T22:16:41.741Z,5.97
2019-02-02T22:19:24.001Z,5.20
2019-02-02T22:22:06.436Z,5.60
2019-02-02T22:24:48.809Z,5.20
2019-02-02T22:27:30.904Z,5.10
2019-02-02T22:30:13.689Z,5.33
2019-02-02T22:32:55.517Z,5.23
2019-02-02T22:35:37.638Z,5.17
2019-02-02T22:38:20.807Z,6.17
2019-02-02T22:41:03.078Z,5.87
2019-02-02T22:43:45.388Z,5.70
2019-02-02T22:46:27.485Z,6.07
2019-02-02T22:49:10.379Z,6.03
2019-02-02T22:51:52.369Z,6.03
2019-02-02T22:54:34.548Z,6.63
2019-02-02T22:57:16.324Z,5.97
2019-02-02T22:59:58.639Z,6.63
2019-02-02T23:02:40.401Z,6.23
2019-02-02T23:05:22.625Z,7.40
2019-02-02T23:08:05.007Z,6.97
2019-02-02T23:10:46.441Z,6.97
2019-02-02T23:13:28.568Z,7.03
2019-02-02T23:16:13.131Z,7.40
2019-02-02T23:18:57.927Z,7.23
2019-02-02T23:21:40.569Z,7.30
2019-02-02T23:24:22.688Z,7.10
2019-02-02T23:27:04.614Z,7.20
2019-02-02T23:29:47.705Z,6.90
2019-02-02T23:32:31.840Z,7.37
2019-02-02T23:35:14.091Z,6.80
2019-02-02T23:37:56.554Z,7.00
2019-02-02T23:40:39.037Z,6.97
2019-02-02T23:43:21.035Z,6.07
2019-02-02T23:46:03.396Z,6.67
2019-02-02T23:48:45.694Z,6.50
2019-02-02T23:51:27.681Z,6.33
2019-02-02T23:54:09.796Z,5.93
2019-02-02T23:56:51.788Z,6.17
2019-02-02T23:59:35.258Z,6.20
